createdAt,value
2023-06-07T00:00:41.940Z,41.81
2023-06-07T00:03:08.725Z,41.49
2023-06-07T00:05:35.455Z,42.46
2023-06-07T00:08:03.175Z,42.64
2023-06-07T00:10:29.864Z,42.91
2023-06-07T00:12:58.813Z,43.42
2023-06-07T00:15:25.502Z,43.81
2023-06-07T00:17:52.352Z,44.03
2023-06-07T00:20:19.206Z,44.31
2023-06-07T00:22:45.864Z,44.35
2023-06-07T00:25:13.663Z,44.62
2023-06-07T00:27:40.365Z,44.51
2023-06-07T00:30:07.836Z,44.79
2023-06-07T00:32:34.564Z,44.64
2023-06-07T00:35:01.309Z,45.32
2023-06-07T00:37:28.138Z,45.50
2023-06-07T00:39:54.857Z,45.29
2023-06-07T00:42:21.562Z,44.92
2023-06-07T00:44:48.198Z,44.29
2023-06-07T00:47:16.214Z,44.71
2023-06-07T00:49:44.176Z,43.68
2023-06-07T00:52:11.922Z,43.61
2023-06-07T00:54:38.566Z,43.81
2023-06-07T00:57:05.720Z,43.65
2023-06-07T00:59:32.371Z,43.61
2023-06-07T01:01:59.071Z,44.16
2023-06-07T01:04:25.846Z,44.18
2023-06-07T01:06:52.590Z,43.60
2023-06-07T01:09:19.501Z,43.57
2023-06-07T01:11:48.673Z,43.46
2023-06-07T01:14:15.392Z,44.09
2023-06-07T01:16:42.158Z,44.08
2023-06-07T01:19:08.980Z,44.16
2023-06-07T01:21:35.682Z,44.16
2023-06-07T01:24:02.516Z,43.62
2023-06-07T01:26:29.213Z,43.72
2023-06-07T01:28:55.876Z,44.20
2023-06-07T01:31:23.347Z,43.54
2023-06-07T01:33:50.236Z,43.30
2023-06-07T01:36:16.885Z,44.17
2023-06-07T01:38:43.512Z,42.54
2023-06-07T01:41:10.356Z,42.16
2023-06-07T01:43:37.053Z,42.58
2023-06-07T01:46:03.938Z,42.92
2023-06-07T01:48:30.680Z,42.39
2023-06-07T01:50:57.406Z,42.02
2023-06-07T01:53:24.054Z,42.25
2023-06-07T01:56:00.600Z,42.01
2023-06-07T01:58:40.954Z,42.21
2023-06-07T02:01:22.422Z,42.28
2023-06-07T02:03:53.364Z,42.59
2023-06-07T02:06:29.985Z,42.51
2023-06-07T02:08:56.811Z,42.71
2023-06-07T02:11:23.497Z,42.83
2023-06-07T02:13:50.199Z,42.36
2023-06-07T02:16:17.169Z,43.13
2023-06-07T02:18:43.856Z,42.20
2023-06-07T02:21:10.987Z,43.03
2023-06-07T02:23:38.196Z,42.72
2023-06-07T02:26:04.940Z,42.25
2023-06-07T02:28:31.635Z,42.38
2023-06-07T02:30:58.391Z,43.21
2023-06-07T02:33:25.266Z,43.04
2023-06-07T02:35:52.094Z,42.68
2023-06-07T02:38:18.919Z,42.58
2023-06-07T02:40:45.559Z,43.06
2023-06-07T02:43:12.189Z,43.52
2023-06-07T02:45:39.839Z,44.16
2023-06-07T02:48:06.569Z,43.86
2023-06-07T02:50:33.345Z,43.40
2023-06-07T02:53:00.097Z,43.69
2023-06-07T02:55:26.921Z,44.24
2023-06-07T02:57:53.642Z,45.31
2023-06-07T03:00:20.290Z,44.77
2023-06-07T03:02:47.229Z,45.01
2023-06-07T03:05:14.023Z,45.07
2023-06-07T03:07:40.717Z,45.18
2023-06-07T03:10:07.881Z,45.05
2023-06-07T03:12:34.531Z,45.22
2023-06-07T03:15:01.266Z,45.43
2023-06-07T03:17:28.160Z,45.32
2023-06-07T03:19:55.000Z,45.42
2023-06-07T03:22:21.651Z,45.52
2023-06-07T03:24:48.909Z,44.89
2023-06-07T03:27:15.692Z,45.17
2023-06-07T03:29:42.431Z,44.73
2023-06-07T03:32:09.222Z,44.71
2023-06-07T03:34:35.871Z,44.58
2023-06-07T03:37:02.587Z,44.58
2023-06-07T03:39:29.308Z,44.76
2023-06-07T03:41:55.939Z,44.69
2023-06-07T03:44:22.620Z,44.19
2023-06-07T03:46:49.566Z,45.54
2023-06-07T03:49:17.034Z,45.24
2023-06-07T03:51:43.754Z,44.95
2023-06-07T03:54:10.546Z,45.74
2023-06-07T03:56:37.558Z,45.72
2023-06-07T03:59:04.204Z,45.63
2023-06-07T04:01:30.904Z,45.38
2023-06-07T04:03:57.816Z,45.92
2023-06-07T04:06:24.656Z,45.73
2023-06-07T04:08:51.958Z,45.80
2023-06-07T04:11:19.595Z,45.94
2023-06-07T04:13:46.291Z,45.71
2023-06-07T04:16:13.008Z,45.61
2023-06-07T04:18:39.695Z,46.05
2023-06-07T04:21:06.346Z,46.14
2023-06-07T04:23:33.217Z,46.22
2023-06-07T04:25:59.884Z,46.52
2023-06-07T04:28:26.614Z,46.24
2023-06-07T04:30:53.298Z,45.93
2023-06-07T04:33:20.030Z,46.31
2023-06-07T04:35:47.249Z,47.31
2023-06-07T04:38:15.133Z,47.02
2023-06-07T04:40:42.054Z,46.84
2023-06-07T04:43:08.741Z,46.58
2023-06-07T04:45:38.350Z,46.87
2023-06-07T04:48:05.441Z,46.84
2023-06-07T04:50:32.129Z,46.76
2023-06-07T04:52:58.801Z,47.08
2023-06-07T04:55:25.456Z,47.16
2023-06-07T04:57:52.209Z,47.38
2023-06-07T05:00:19.077Z,47.47
2023-06-07T05:02:45.929Z,47.66
2023-06-07T05:05:12.715Z,48.16
2023-06-07T05:07:41.030Z,48.40
2023-06-07T05:10:08.274Z,48.31
2023-06-07T05:12:35.348Z,48.28
2023-06-07T05:15:01.988Z,48.37
2023-06-07T05:17:28.948Z,48.77
2023-06-07T05:19:58.366Z,48.93
2023-06-07T05:22:25.011Z,49.07
2023-06-07T05:24:51.657Z,48.80
2023-06-07T05:27:18.377Z,49.38
2023-06-07T05:29:45.106Z,49.33
2023-06-07T05:32:11.880Z,49.36
2023-06-07T05:34:38.686Z,49.41
2023-06-07T05:37:06.206Z,49.22
2023-06-07T05:39:32.906Z,49.29
2023-06-07T05:41:59.554Z,49.58
2023-06-07T05:44:26.179Z,50.24
2023-06-07T05:46:53.001Z,49.07
2023-06-07T05:49:19.777Z,49.34
2023-06-07T05:51:46.457Z,49.29
2023-06-07T05:54:13.316Z,50.38
2023-06-07T05:56:40.095Z,49.79
2023-06-07T05:59:06.868Z,49.20
2023-06-07T06:01:33.503Z,50.01
2023-06-07T06:04:00.255Z,50.28
2023-06-07T06:06:26.995Z,51.15
2023-06-07T06:08:53.748Z,51.04
2023-06-07T06:11:20.417Z,50.52
2023-06-07T06:13:47.060Z,50.41
2023-06-07T06:16:13.741Z,50.51
2023-06-07T06:18:42.586Z,49.73
2023-06-07T06:21:09.580Z,50.24
2023-06-07T06:23:36.723Z,49.40
2023-06-07T06:26:03.513Z,50.53
2023-06-07T06:28:30.282Z,49.85
2023-06-07T06:30:58.216Z,47.77
2023-06-07T06:33:24.982Z,49.74
2023-06-07T06:35:51.888Z,45.77
2023-06-07T06:38:18.658Z,48.70
2023-06-07T06:40:45.318Z,49.02
2023-06-07T06:43:12.642Z,49.25
2023-06-07T06:45:39.313Z,48.15
2023-06-07T06:48:06.583Z,43.04
2023-06-07T06:50:34.437Z,41.53
2023-06-07T06:53:01.406Z,42.19
2023-06-07T06:55:28.154Z,46.49
2023-06-07T06:57:55.269Z,41.58
2023-06-07T07:00:22.145Z,41.48
2023-06-07T07:02:48.956Z,42.47
2023-06-07T07:05:15.806Z,44.92
2023-06-07T07:07:42.665Z,42.52
2023-06-07T07:10:09.992Z,42.16
2023-06-07T07:12:37.304Z,40.14
2023-06-07T07:15:04.276Z,39.55
2023-06-07T07:17:31.063Z,40.73
2023-06-07T07:19:57.842Z,40.77
2023-06-07T07:22:26.843Z,40.54
2023-06-07T07:24:56.327Z,41.83
2023-06-07T07:27:23.143Z,42.45
2023-06-07T07:29:49.824Z,41.32
2023-06-07T07:32:16.551Z,40.26
2023-06-07T07:34:43.227Z,41.61
2023-06-07T07:37:10.139Z,40.60
2023-06-07T07:39:36.777Z,40.93
2023-06-07T07:42:03.566Z,40.70
2023-06-07T07:44:30.259Z,41.38
2023-06-07T07:46:56.942Z,41.30
2023-06-07T07:49:23.636Z,40.22
2023-06-07T07:51:51.238Z,41.14
2023-06-07T07:54:17.986Z,42.02
2023-06-07T07:56:44.864Z,41.28
2023-06-07T07:59:12.520Z,40.97
2023-06-07T08:01:39.657Z,41.28
2023-06-07T08:04:06.451Z,40.35
2023-06-07T08:06:33.205Z,40.24
2023-06-07T08:08:59.848Z,39.72
2023-06-07T08:11:26.941Z,39.49
2023-06-07T08:13:53.605Z,39.63
2023-06-07T08:16:20.351Z,38.51
2023-06-07T08:18:49.133Z,38.84
2023-06-07T08:21:16.218Z,38.12
2023-06-07T08:23:42.989Z,37.83
2023-06-07T08:26:09.634Z,37.84
2023-06-07T08:28:36.871Z,38.90
2023-06-07T08:31:03.773Z,38.67
2023-06-07T08:33:31.017Z,39.23
2023-06-07T08:35:57.683Z,39.20
2023-06-07T08:38:24.413Z,38.52
2023-06-07T08:40:54.929Z,38.96
2023-06-07T08:43:21.653Z,40.36
2023-06-07T08:45:50.204Z,39.78
2023-06-07T08:48:17.009Z,39.55
2023-06-07T08:50:47.197Z,38.64
2023-06-07T08:53:14.989Z,38.97
2023-06-07T08:55:45.324Z,36.98
2023-06-07T08:58:11.990Z,37.69
2023-06-07T09:00:38.737Z,38.58
2023-06-07T09:03:06.102Z,37.52
2023-06-07T09:05:32.828Z,38.80
2023-06-07T09:07:59.522Z,38.68
2023-06-07T09:10:26.209Z,37.25
2023-06-07T09:12:53.295Z,38.02
2023-06-07T09:15:21.155Z,37.29
2023-06-07T09:17:51.747Z,37.96
2023-06-07T09:20:27.865Z,37.94
2023-06-07T09:22:58.072Z,39.51
2023-06-07T09:25:25.109Z,39.53
2023-06-07T09:27:51.928Z,39.42
2023-06-07T09:30:18.749Z,39.88
2023-06-07T09:32:45.518Z,36.48
2023-06-07T09:35:16.366Z,37.21
2023-06-07T09:37:44.348Z,37.96
2023-06-07T09:40:11.538Z,38.56
2023-06-07T09:42:38.359Z,39.12
2023-06-07T09:45:11.198Z,39.29
2023-06-07T09:47:38.476Z,36.71
2023-06-07T09:50:09.617Z,36.40
2023-06-07T09:52:37.018Z,37.09
2023-06-07T09:55:04.267Z,37.92
2023-06-07T09:57:33.285Z,39.28
2023-06-07T10:00:07.587Z,38.03
2023-06-07T10:02:34.622Z,38.81
2023-06-07T10:05:01.726Z,38.90
2023-06-07T10:07:34.044Z,39.60
2023-06-07T10:10:00.730Z,40.76
2023-06-07T10:12:28.504Z,40.59
2023-06-07T10:14:55.149Z,38.06
2023-06-07T10:17:26.211Z,37.04
2023-06-07T10:19:52.971Z,37.77
2023-06-07T10:22:24.969Z,38.58
2023-06-07T10:25:00.998Z,36.77
2023-06-07T10:27:28.199Z,35.88
2023-06-07T10:30:11.291Z,35.73
2023-06-07T10:32:39.191Z,37.50
2023-06-07T10:35:15.289Z,38.05
2023-06-07T10:37:43.579Z,35.94
2023-06-07T10:40:10.402Z,37.07
2023-06-07T10:42:38.926Z,35.95
2023-06-07T10:45:06.233Z,34.00
2023-06-07T10:47:32.932Z,32.86
2023-06-07T10:49:59.695Z,33.25
2023-06-07T10:52:26.490Z,34.39
2023-06-07T10:54:53.359Z,36.08
2023-06-07T10:57:33.318Z,35.88
2023-06-07T11:00:25.284Z,35.17
2023-06-07T11:02:52.193Z,36.16
2023-06-07T11:05:19.081Z,36.77
2023-06-07T11:07:45.915Z,36.33
2023-06-07T11:10:18.608Z,36.15
2023-06-07T11:12:45.181Z,34.69
2023-06-07T11:15:18.187Z,33.89
2023-06-07T11:18:00.541Z,33.53
2023-06-07T11:20:36.423Z,35.23
2023-06-07T11:23:31.241Z,35.11
2023-06-07T11:26:08.005Z,34.71
2023-06-07T11:28:35.714Z,34.60
2023-06-07T11:31:02.512Z,33.31
2023-06-07T11:33:30.683Z,34.06
2023-06-07T11:35:57.498Z,33.42
2023-06-07T11:38:25.333Z,34.62
2023-06-07T11:40:52.136Z,34.70
2023-06-07T11:43:23.780Z,32.92
2023-06-07T11:45:50.519Z,31.62
2023-06-07T11:48:17.246Z,32.36
2023-06-07T11:50:44.099Z,31.96
2023-06-07T11:53:13.550Z,32.34
2023-06-07T11:55:40.694Z,32.42
2023-06-07T11:58:07.587Z,32.48
2023-06-07T12:00:36.396Z,33.76
2023-06-07T12:03:04.290Z,34.56
2023-06-07T12:05:31.295Z,35.17
2023-06-07T12:08:04.105Z,33.22
2023-06-07T12:10:30.838Z,32.82
2023-06-07T12:13:12.359Z,33.95
2023-06-07T12:15:43.453Z,32.81
2023-06-07T12:18:18.862Z,32.41
2023-06-07T12:20:46.251Z,31.09
2023-06-07T12:23:13.459Z,30.00
2023-06-07T12:25:40.632Z,30.42
2023-06-07T12:28:07.500Z,30.89
2023-06-07T12:30:35.204Z,30.41
2023-06-07T12:33:02.018Z,31.17
2023-06-07T12:35:39.215Z,30.88
2023-06-07T12:38:11.136Z,31.60
2023-06-07T12:40:38.446Z,32.06
2023-06-07T12:43:05.246Z,31.87
2023-06-07T12:45:31.900Z,32.84
2023-06-07T12:47:58.808Z,32.55
2023-06-07T12:50:25.586Z,34.13
2023-06-07T12:52:52.373Z,32.30
2023-06-07T12:55:19.168Z,32.08
2023-06-07T12:57:49.883Z,31.13
2023-06-07T13:00:17.440Z,31.24
2023-06-07T13:02:44.221Z,31.85
2023-06-07T13:05:11.579Z,30.97
2023-06-07T13:07:39.354Z,32.24
2023-06-07T13:10:07.653Z,33.39
2023-06-07T13:12:34.848Z,34.53
2023-06-07T13:15:01.638Z,32.48
2023-06-07T13:17:28.543Z,31.67
2023-06-07T13:19:55.289Z,32.61
2023-06-07T13:22:22.084Z,32.69
2023-06-07T13:24:48.795Z,31.68
2023-06-07T13:27:15.528Z,31.44
2023-06-07T13:29:42.569Z,32.70
2023-06-07T13:32:09.581Z,32.73
2023-06-07T13:34:36.291Z,33.02
2023-06-07T13:37:02.992Z,33.72
2023-06-07T13:39:29.757Z,33.53
2023-06-07T13:41:56.512Z,33.43
2023-06-07T13:44:23.379Z,33.89
2023-06-07T13:46:50.177Z,33.96
2023-06-07T13:49:16.964Z,33.28
2023-06-07T13:51:44.126Z,32.01
2023-06-07T13:54:10.776Z,31.71
2023-06-07T13:56:38.749Z,32.98
2023-06-07T13:59:05.570Z,32.18
2023-06-07T14:01:32.354Z,32.63
2023-06-07T14:03:59.263Z,31.62
2023-06-07T14:06:28.250Z,29.68
2023-06-07T14:08:55.111Z,30.57
2023-06-07T14:11:21.938Z,30.75
2023-06-07T14:13:48.592Z,29.50
2023-06-07T14:16:16.594Z,30.14
2023-06-07T14:18:44.483Z,29.68
2023-06-07T14:21:12.616Z,29.20
2023-06-07T14:23:39.310Z,30.59
2023-06-07T14:26:06.024Z,31.05
2023-06-07T14:28:32.737Z,31.71
2023-06-07T14:30:59.420Z,30.90
2023-06-07T14:33:26.107Z,30.19
2023-06-07T14:35:52.932Z,31.16
2023-06-07T14:38:19.582Z,30.13
2023-06-07T14:40:46.285Z,28.58
2023-06-07T14:43:15.322Z,27.50
2023-06-07T14:45:42.088Z,27.63
2023-06-07T14:48:08.897Z,24.97
2023-06-07T14:50:35.788Z,24.02
2023-06-07T14:53:02.580Z,24.81
2023-06-07T14:55:29.242Z,24.15
2023-06-07T14:57:55.959Z,24.35
2023-06-07T15:00:22.676Z,23.46
2023-06-07T15:02:49.384Z,23.01
2023-06-07T15:05:16.126Z,22.97
2023-06-07T15:07:42.996Z,22.35
2023-06-07T15:10:09.956Z,21.43
2023-06-07T15:12:36.607Z,20.73
2023-06-07T15:15:03.618Z,21.58
2023-06-07T15:17:30.328Z,19.87
2023-06-07T15:19:57.052Z,19.69
2023-06-07T15:22:23.747Z,19.76
2023-06-07T15:24:50.529Z,19.34
2023-06-07T15:27:17.216Z,18.65
2023-06-07T15:29:44.905Z,18.42
2023-06-07T15:32:13.099Z,18.13
2023-06-07T15:34:44.682Z,18.39
2023-06-07T15:37:11.818Z,17.18
2023-06-07T15:39:38.644Z,16.73
2023-06-07T15:42:05.611Z,17.04
2023-06-07T15:44:32.371Z,15.83
2023-06-07T15:46:59.493Z,16.04
2023-06-07T15:49:27.694Z,14.85
2023-06-07T15:51:54.947Z,15.29
2023-06-07T15:54:21.917Z,14.38
2023-06-07T15:56:48.660Z,14.24
2023-06-07T15:59:16.511Z,14.45
2023-06-07T16:01:44.369Z,14.01
2023-06-07T16:04:11.313Z,13.34
2023-06-07T16:06:38.063Z,13.48
2023-06-07T16:09:04.799Z,13.33
2023-06-07T16:11:31.479Z,14.22
2023-06-07T16:13:58.139Z,13.75
2023-06-07T16:16:24.966Z,13.31
2023-06-07T16:18:53.198Z,13.54
2023-06-07T16:21:20.254Z,13.57
2023-06-07T16:23:48.628Z,13.14
2023-06-07T16:26:16.846Z,15.57
2023-06-07T16:28:47.926Z,14.95
2023-06-07T16:31:14.870Z,14.54
2023-06-07T16:33:41.722Z,14.09
2023-06-07T16:36:08.780Z,14.14
2023-06-07T16:38:35.954Z,14.26
2023-06-07T16:41:02.714Z,15.37
2023-06-07T16:43:30.806Z,15.62
2023-06-07T16:45:57.681Z,15.67
2023-06-07T16:48:24.730Z,17.85
2023-06-07T16:50:51.521Z,19.78
2023-06-07T16:53:18.285Z,20.65
2023-06-07T16:55:45.050Z,23.21
2023-06-07T16:58:11.820Z,23.64
2023-06-07T17:00:38.523Z,23.42
2023-06-07T17:03:05.747Z,25.02
2023-06-07T17:05:33.780Z,25.01
2023-06-07T17:08:00.560Z,24.96
2023-06-07T17:10:29.705Z,25.01
2023-06-07T17:12:56.490Z,22.31
2023-06-07T17:15:23.184Z,23.92
2023-06-07T17:17:50.031Z,23.74
2023-06-07T17:20:16.809Z,23.85
2023-06-07T17:22:43.959Z,23.46
2023-06-07T17:25:10.832Z,24.09
2023-06-07T17:27:37.646Z,25.33
2023-06-07T17:30:05.076Z,25.80
2023-06-07T17:32:32.053Z,25.75
2023-06-07T17:34:58.786Z,26.25
2023-06-07T17:37:25.530Z,26.49
2023-06-07T17:39:52.766Z,27.02
2023-06-07T17:42:19.558Z,26.94
2023-06-07T17:44:46.324Z,27.72
2023-06-07T17:47:15.115Z,27.09
2023-06-07T17:49:43.549Z,27.41
2023-06-07T17:52:21.716Z,27.82
2023-06-07T17:54:50.469Z,27.84
2023-06-07T17:57:17.128Z,29.12
2023-06-07T17:59:43.812Z,28.74
2023-06-07T18:02:10.514Z,29.18
2023-06-07T18:04:37.907Z,29.34
2023-06-07T18:07:05.414Z,29.49
2023-06-07T18:09:32.193Z,29.63
2023-06-07T18:11:58.882Z,29.29
2023-06-07T18:14:25.769Z,29.70
2023-06-07T18:16:52.684Z,29.16
2023-06-07T18:19:19.344Z,29.45
2023-06-07T18:21:46.219Z,29.47
2023-06-07T18:24:12.916Z,29.47
2023-06-07T18:26:39.802Z,30.39
2023-06-07T18:29:06.442Z,29.76
2023-06-07T18:31:33.166Z,29.95
2023-06-07T18:33:59.816Z,30.07
2023-06-07T18:36:26.574Z,29.71
2023-06-07T18:38:53.349Z,29.74
2023-06-07T18:41:20.155Z,29.88
2023-06-07T18:43:46.860Z,29.63
2023-06-07T18:46:13.809Z,29.94
2023-06-07T18:48:40.902Z,29.81
2023-06-07T18:51:07.583Z,30.15
2023-06-07T18:53:34.291Z,30.16
2023-06-07T18:56:00.987Z,30.31
2023-06-07T18:58:27.709Z,29.71
2023-06-07T19:00:54.732Z,29.45
2023-06-07T19:03:21.549Z,29.70
2023-06-07T19:05:48.381Z,29.69
2023-06-07T19:08:15.248Z,29.54
2023-06-07T19:10:42.123Z,29.04
2023-06-07T19:13:09.353Z,29.31
2023-06-07T19:15:36.072Z,28.80
2023-06-07T19:18:02.804Z,29.28
2023-06-07T19:20:29.645Z,28.58
2023-06-07T19:22:56.382Z,28.86
2023-06-07T19:25:23.128Z,29.00
2023-06-07T19:27:49.868Z,28.29
2023-06-07T19:30:17.061Z,28.87
2023-06-07T19:32:43.979Z,28.83
2023-06-07T19:35:10.680Z,28.36
2023-06-07T19:37:37.459Z,28.54
2023-06-07T19:40:06.949Z,28.74
2023-06-07T19:42:33.746Z,28.88
2023-06-07T19:45:00.392Z,28.52
2023-06-07T19:47:27.151Z,28.32
2023-06-07T19:49:53.836Z,30.10
2023-06-07T19:52:20.546Z,28.86
2023-06-07T19:54:47.287Z,28.74
2023-06-07T19:57:14.131Z,29.52
2023-06-07T19:59:41.212Z,30.83
2023-06-07T20:02:08.018Z,30.19
2023-06-07T20:04:35.743Z,30.10
2023-06-07T20:07:03.298Z,29.80
2023-06-07T20:09:34.243Z,30.97
2023-06-07T20:12:01.035Z,30.69
2023-06-07T20:14:27.713Z,30.28
2023-06-07T20:16:54.529Z,32.72
2023-06-07T20:19:21.367Z,31.63
2023-06-07T20:21:48.148Z,32.18
2023-06-07T20:24:14.936Z,32.11
2023-06-07T20:26:43.316Z,32.55
2023-06-07T20:29:10.109Z,33.14
2023-06-07T20:31:36.849Z,34.08
2023-06-07T20:34:03.587Z,34.12
2023-06-07T20:36:30.298Z,34.64
2023-06-07T20:38:57.028Z,34.49
2023-06-07T20:41:23.783Z,35.25
2023-06-07T20:43:50.814Z,35.25
2023-06-07T20:46:17.483Z,35.48
2023-06-07T20:48:44.226Z,35.39
2023-06-07T20:51:10.932Z,36.31
2023-06-07T20:53:38.896Z,36.34
2023-06-07T20:56:05.666Z,36.79
2023-06-07T20:58:32.469Z,36.56
2023-06-07T21:00:59.142Z,35.62
2023-06-07T21:03:26.045Z,34.69
2023-06-07T21:05:54.338Z,36.71
2023-06-07T21:08:21.028Z,36.32
2023-06-07T21:10:47.739Z,36.71
2023-06-07T21:13:14.523Z,35.55
2023-06-07T21:15:41.177Z,35.95
2023-06-07T21:18:07.841Z,35.67
2023-06-07T21:20:34.702Z,36.35
2023-06-07T21:23:01.486Z,35.83
2023-06-07T21:25:28.148Z,36.95
2023-06-07T21:27:55.838Z,36.18
2023-06-07T21:30:22.598Z,36.49
2023-06-07T21:32:49.435Z,36.44
2023-06-07T21:35:16.192Z,36.13
2023-06-07T21:37:43.088Z,36.92
2023-06-07T21:40:10.244Z,36.30
2023-06-07T21:42:36.887Z,36.87
2023-06-07T21:45:04.770Z,36.33
2023-06-07T21:47:31.550Z,36.53
2023-06-07T21:49:58.313Z,36.41
2023-06-07T21:52:25.129Z,36.72
2023-06-07T21:54:51.854Z,36.60
2023-06-07T21:57:18.547Z,37.35
2023-06-07T21:59:45.313Z,36.96
2023-06-07T22:02:12.058Z,37.02
2023-06-07T22:04:38.834Z,37.32
2023-06-07T22:07:05.704Z,37.58
2023-06-07T22:09:32.456Z,37.58
2023-06-07T22:11:59.289Z,37.44
2023-06-07T22:14:26.070Z,37.73
2023-06-07T22:16:52.834Z,37.28
2023-06-07T22:19:19.515Z,37.41
2023-06-07T22:21:46.806Z,37.49
2023-06-07T22:24:13.695Z,37.52
2023-06-07T22:26:40.536Z,38.98
2023-06-07T22:29:07.657Z,38.61
2023-06-07T22:31:34.409Z,38.14
2023-06-07T22:34:06.863Z,37.78
2023-06-07T22:36:36.401Z,37.92
2023-06-07T22:39:03.131Z,38.57
2023-06-07T22:41:29.833Z,38.62
2023-06-07T22:43:56.683Z,39.91
2023-06-07T22:46:23.748Z,39.30
2023-06-07T22:48:50.521Z,39.12
2023-06-07T22:51:17.361Z,39.19
2023-06-07T22:53:44.717Z,39.37
2023-06-07T22:56:11.473Z,39.04
2023-06-07T22:58:38.583Z,39.55
2023-06-07T23:01:05.322Z,39.43
2023-06-07T23:03:32.433Z,39.85
2023-06-07T23:06:00.750Z,39.87
2023-06-07T23:08:27.874Z,40.02
2023-06-07T23:10:55.075Z,39.90
2023-06-07T23:13:22.212Z,40.55
2023-06-07T23:15:51.643Z,41.00
2023-06-07T23:18:18.413Z,41.19
2023-06-07T23:20:45.583Z,41.04
2023-06-07T23:25:41.882Z,41.21
2023-06-07T23:28:08.667Z,44.49
2023-06-07T23:30:37.657Z,44.93
2023-06-07T23:33:05.762Z,44.79
2023-06-07T23:35:32.460Z,44.47
2023-06-07T23:37:59.174Z,45.01
2023-06-07T23:40:25.853Z,44.34
2023-06-07T23:42:52.539Z,43.85
2023-06-07T23:45:19.868Z,43.40
2023-06-07T23:47:46.800Z,43.35
2023-06-07T23:50:13.651Z,43.37
2023-06-07T23:52:40.839Z,43.50
2023-06-07T23:55:08.015Z,42.99
2023-06-07T23:57:34.754Z,42.69
